sensor_id;sensor_type;location;lat;lon;timestamp;P1;durP1;ratioP1;P2;durP2;ratioP2
9860;SDS011;4969;52.304;4.968;2023-07-20T00:01:25;1.60;;;1.50;;
9860;SDS011;4969;52.304;4.968;2023-07-20T00:03:52;4.30;;;1.70;;
9860;SDS011;4969;52.304;4.968;2023-07-20T00:06:20;1.70;;;1.60;;
9860;SDS011;4969;52.304;4.968;2023-07-20T00:08:47;1.85;;;1.75;;
9860;SDS011;4969;52.304;4.968;2023-07-20T00:11:15;1.52;;;1.42;;
9860;SDS011;4969;52.304;4.968;2023-07-20T00:13:42;2.75;;;1.75;;
9860;SDS011;4969;52.304;4.968;2023-07-20T00:16:09;2.45;;;1.77;;
9860;SDS011;4969;52.304;4.968;2023-07-20T00:18:35;1.80;;;1.70;;
9860;SDS011;4969;52.304;4.968;2023-07-20T00:21:02;1.88;;;1.42;;
9860;SDS011;4969;52.304;4.968;2023-07-20T00:23:29;1.55;;;1.40;;
9860;SDS011;4969;52.304;4.968;2023-07-20T00:25:55;1.33;;;1.33;;
9860;SDS011;4969;52.304;4.968;2023-07-20T00:28:23;1.40;;;1.30;;
9860;SDS011;4969;52.304;4.968;2023-07-20T00:30:50;1.40;;;1.30;;
9860;SDS011;4969;52.304;4.968;2023-07-20T00:33:17;1.70;;;1.60;;
9860;SDS011;4969;52.304;4.968;2023-07-20T00:35:44;1.60;;;1.08;;
9860;SDS011;4969;52.304;4.968;2023-07-20T00:38:11;1.98;;;1.50;;
9860;SDS011;4969;52.304;4.968;2023-07-20T00:40:38;1.40;;;1.30;;
9860;SDS011;4969;52.304;4.968;2023-07-20T00:43:06;1.63;;;1.50;;
9860;SDS011;4969;52.304;4.968;2023-07-20T00:45:34;1.65;;;1.55;;
9860;SDS011;4969;52.304;4.968;2023-07-20T00:48:01;1.70;;;1.60;;
9860;SDS011;4969;52.304;4.968;2023-07-20T00:50:30;2.90;;;1.58;;
9860;SDS011;4969;52.304;4.968;2023-07-20T00:52:58;2.17;;;1.55;;
9860;SDS011;4969;52.304;4.968;2023-07-20T00:55:25;1.77;;;1.67;;
9860;SDS011;4969;52.304;4.968;2023-07-20T00:57:53;1.75;;;1.52;;
9860;SDS011;4969;52.304;4.968;2023-07-20T01:00:20;1.90;;;1.40;;
9860;SDS011;4969;52.304;4.968;2023-07-20T01:02:48;2.22;;;1.50;;
9860;SDS011;4969;52.304;4.968;2023-07-20T01:05:14;2.20;;;1.48;;
9860;SDS011;4969;52.304;4.968;2023-07-20T01:07:43;1.52;;;1.42;;
9860;SDS011;4969;52.304;4.968;2023-07-20T01:10:21;1.30;;;1.30;;
9860;SDS011;4969;52.304;4.968;2023-07-20T01:12:55;2.08;;;1.58;;
9860;SDS011;4969;52.304;4.968;2023-07-20T01:15:22;1.50;;;1.40;;
9860;SDS011;4969;52.304;4.968;2023-07-20T01:17:50;2.00;;;1.60;;
9860;SDS011;4969;52.304;4.968;2023-07-20T01:20:19;2.08;;;1.75;;
9860;SDS011;4969;52.304;4.968;2023-07-20T01:22:55;1.88;;;1.77;;
9860;SDS011;4969;52.304;4.968;2023-07-20T01:25:50;2.10;;;1.90;;
9860;SDS011;4969;52.304;4.968;2023-07-20T01:28:35;1.85;;;1.75;;
9860;SDS011;4969;52.304;4.968;2023-07-20T01:31:15;2.00;;;1.85;;
9860;SDS011;4969;52.304;4.968;2023-07-20T01:33:47;2.20;;;1.98;;
9860;SDS011;4969;52.304;4.968;2023-07-20T01:36:16;1.55;;;1.55;;
9860;SDS011;4969;52.304;4.968;2023-07-20T01:38:45;2.38;;;2.05;;
9860;SDS011;4969;52.304;4.968;2023-07-20T01:41:12;2.78;;;2.05;;
9860;SDS011;4969;52.304;4.968;2023-07-20T01:43:39;2.30;;;2.10;;
9860;SDS011;4969;52.304;4.968;2023-07-20T01:46:06;1.92;;;1.70;;
9860;SDS011;4969;52.304;4.968;2023-07-20T01:48:34;2.17;;;2.03;;
9860;SDS011;4969;52.304;4.968;2023-07-20T01:51:00;1.83;;;1.73;;
9860;SDS011;4969;52.304;4.968;2023-07-20T01:53:27;3.83;;;2.17;;
9860;SDS011;4969;52.304;4.968;2023-07-20T01:55:53;2.85;;;1.90;;
9860;SDS011;4969;52.304;4.968;2023-07-20T01:58:20;3.50;;;1.70;;
9860;SDS011;4969;52.304;4.968;2023-07-20T02:00:47;1.73;;;1.63;;
9860;SDS011;4969;52.304;4.968;2023-07-20T02:03:13;1.88;;;1.70;;
9860;SDS011;4969;52.304;4.968;2023-07-20T02:05:43;3.30;;;1.60;;
9860;SDS011;4969;52.304;4.968;2023-07-20T02:08:09;1.67;;;1.58;;
9860;SDS011;4969;52.304;4.968;2023-07-20T02:10:36;1.80;;;1.70;;
9860;SDS011;4969;52.304;4.968;2023-07-20T02:13:03;2.35;;;1.65;;
9860;SDS011;4969;52.304;4.968;2023-07-20T02:15:29;1.92;;;1.60;;
9860;SDS011;4969;52.304;4.968;2023-07-20T02:17:56;2.17;;;1.70;;
9860;SDS011;4969;52.304;4.968;2023-07-20T02:20:22;2.38;;;1.75;;
9860;SDS011;4969;52.304;4.968;2023-07-20T02:22:50;2.10;;;1.90;;
9860;SDS011;4969;52.304;4.968;2023-07-20T02:25:17;1.75;;;1.60;;
9860;SDS011;4969;52.304;4.968;2023-07-20T02:27:44;1.55;;;1.45;;
9860;SDS011;4969;52.304;4.968;2023-07-20T02:30:10;2.13;;;1.42;;
9860;SDS011;4969;52.304;4.968;2023-07-20T02:32:37;1.35;;;1.25;;
9860;SDS011;4969;52.304;4.968;2023-07-20T02:35:05;1.75;;;1.42;;
9860;SDS011;4969;52.304;4.968;2023-07-20T02:37:32;2.10;;;1.33;;
9860;SDS011;4969;52.304;4.968;2023-07-20T02:40:00;2.92;;;1.55;;
9860;SDS011;4969;52.304;4.968;2023-07-20T02:42:28;1.85;;;1.52;;
9860;SDS011;4969;52.304;4.968;2023-07-20T02:44:55;2.10;;;1.48;;
9860;SDS011;4969;52.304;4.968;2023-07-20T02:47:21;3.42;;;1.60;;
9860;SDS011;4969;52.304;4.968;2023-07-20T02:49:48;2.80;;;1.67;;
9860;SDS011;4969;52.304;4.968;2023-07-20T02:52:15;2.28;;;1.95;;
9860;SDS011;4969;52.304;4.968;2023-07-20T02:54:41;2.50;;;2.13;;
9860;SDS011;4969;52.304;4.968;2023-07-20T02:57:09;2.97;;;1.70;;
9860;SDS011;4969;52.304;4.968;2023-07-20T02:59:36;2.42;;;1.65;;
9860;SDS011;4969;52.304;4.968;2023-07-20T03:02:02;1.80;;;1.50;;
9860;SDS011;4969;52.304;4.968;2023-07-20T03:04:29;2.58;;;1.75;;
9860;SDS011;4969;52.304;4.968;2023-07-20T03:06:56;3.15;;;1.50;;
9860;SDS011;4969;52.304;4.968;2023-07-20T03:09:22;2.97;;;1.50;;
9860;SDS011;4969;52.304;4.968;2023-07-20T03:11:49;1.77;;;1.67;;
9860;SDS011;4969;52.304;4.968;2023-07-20T03:14:17;2.72;;;1.48;;
9860;SDS011;4969;52.304;4.968;2023-07-20T04:42:35;2.22;;;1.48;;
9860;SDS011;4969;52.304;4.968;2023-07-20T04:45:02;2.42;;;1.60;;
9860;SDS011;4969;52.304;4.968;2023-07-20T04:47:29;2.20;;;1.58;;
9860;SDS011;4969;52.304;4.968;2023-07-20T04:49:56;3.33;;;1.20;;
9860;SDS011;4969;52.304;4.968;2023-07-20T04:52:22;4.07;;;1.60;;
9860;SDS011;4969;52.304;4.968;2023-07-20T04:54:49;3.13;;;1.73;;
9860;SDS011;4969;52.304;4.968;2023-07-20T04:57:16;1.80;;;1.27;;
9860;SDS011;4969;52.304;4.968;2023-07-20T04:59:43;1.73;;;1.40;;
9860;SDS011;4969;52.304;4.968;2023-07-20T05:02:10;1.67;;;1.30;;
9860;SDS011;4969;52.304;4.968;2023-07-20T05:04:37;2.10;;;1.52;;
9860;SDS011;4969;52.304;4.968;2023-07-20T05:07:03;1.33;;;1.23;;
9860;SDS011;4969;52.304;4.968;2023-07-20T05:09:30;2.35;;;1.40;;
9860;SDS011;4969;52.304;4.968;2023-07-20T05:11:57;1.17;;;1.08;;
9860;SDS011;4969;52.304;4.968;2023-07-20T05:14:24;1.35;;;1.00;;
9860;SDS011;4969;52.304;4.968;2023-07-20T05:16:52;1.23;;;1.10;;
9860;SDS011;4969;52.304;4.968;2023-07-20T05:19:18;1.20;;;1.15;;
9860;SDS011;4969;52.304;4.968;2023-07-20T05:21:45;1.27;;;1.25;;
9860;SDS011;4969;52.304;4.968;2023-07-20T05:24:11;1.30;;;1.20;;
9860;SDS011;4969;52.304;4.968;2023-07-20T05:26:38;1.65;;;1.52;;
9860;SDS011;4969;52.304;4.968;2023-07-20T05:29:04;2.38;;;1.13;;
9860;SDS011;4969;52.304;4.968;2023-07-20T05:31:31;1.60;;;1.50;;
9860;SDS011;4969;52.304;4.968;2023-07-20T05:33:59;1.60;;;1.50;;
9860;SDS011;4969;52.304;4.968;2023-07-20T05:36:26;1.55;;;1.40;;
9860;SDS011;4969;52.304;4.968;2023-07-20T05:38:52;1.40;;;1.23;;
9860;SDS011;4969;52.304;4.968;2023-07-20T05:41:19;2.35;;;1.85;;
9860;SDS011;4969;52.304;4.968;2023-07-20T05:43:46;1.77;;;1.67;;
9860;SDS011;4969;52.304;4.968;2023-07-20T05:46:12;1.30;;;1.20;;
9860;SDS011;4969;52.304;4.968;2023-07-20T05:48:39;1.60;;;1.30;;
9860;SDS011;4969;52.304;4.968;2023-07-20T05:51:07;3.30;;;1.33;;
9860;SDS011;4969;52.304;4.968;2023-07-20T05:53:34;1.63;;;1.15;;
9860;SDS011;4969;52.304;4.968;2023-07-20T05:56:01;2.35;;;1.20;;
9860;SDS011;4969;52.304;4.968;2023-07-20T05:58:28;1.33;;;1.00;;
9860;SDS011;4969;52.304;4.968;2023-07-20T06:00:55;1.92;;;1.20;;
9860;SDS011;4969;52.304;4.968;2023-07-20T06:03:21;2.20;;;1.20;;
9860;SDS011;4969;52.304;4.968;2023-07-20T06:05:48;2.10;;;1.50;;
9860;SDS011;4969;52.304;4.968;2023-07-20T06:08:16;1.55;;;1.45;;
9860;SDS011;4969;52.304;4.968;2023-07-20T06:10:43;2.35;;;1.55;;
9860;SDS011;4969;52.304;4.968;2023-07-20T06:13:08;4.03;;;1.67;;
9860;SDS011;4969;52.304;4.968;2023-07-20T06:15:35;1.75;;;1.48;;
9860;SDS011;4969;52.304;4.968;2023-07-20T06:18:04;1.60;;;1.40;;
9860;SDS011;4969;52.304;4.968;2023-07-20T06:20:30;1.45;;;1.35;;
9860;SDS011;4969;52.304;4.968;2023-07-20T06:22:57;1.67;;;1.20;;
9860;SDS011;4969;52.304;4.968;2023-07-20T06:25:25;1.30;;;1.20;;
9860;SDS011;4969;52.304;4.968;2023-07-20T06:27:52;2.22;;;1.33;;
9860;SDS011;4969;52.304;4.968;2023-07-20T06:30:18;1.75;;;1.02;;
9860;SDS011;4969;52.304;4.968;2023-07-20T06:32:45;2.75;;;1.00;;
9860;SDS011;4969;52.304;4.968;2023-07-20T06:35:12;1.75;;;1.05;;
9860;SDS011;4969;52.304;4.968;2023-07-20T06:37:39;1.13;;;0.90;;
9860;SDS011;4969;52.304;4.968;2023-07-20T06:40:06;2.03;;;1.08;;
9860;SDS011;4969;52.304;4.968;2023-07-20T06:42:35;1.75;;;0.80;;
9860;SDS011;4969;52.304;4.968;2023-07-20T06:45:02;1.42;;;0.68;;
9860;SDS011;4969;52.304;4.968;2023-07-20T06:47:28;2.22;;;0.88;;
9860;SDS011;4969;52.304;4.968;2023-07-20T06:49:55;1.25;;;0.70;;
9860;SDS011;4969;52.304;4.968;2023-07-20T06:52:22;0.60;;;0.60;;
9860;SDS011;4969;52.304;4.968;2023-07-20T06:54:49;1.33;;;1.02;;
9860;SDS011;4969;52.304;4.968;2023-07-20T06:57:16;2.42;;;0.90;;
9860;SDS011;4969;52.304;4.968;2023-07-20T06:59:44;0.80;;;0.70;;
9860;SDS011;4969;52.304;4.968;2023-07-20T07:02:10;0.93;;;0.80;;
9860;SDS011;4969;52.304;4.968;2023-07-20T07:04:37;0.73;;;0.73;;
9860;SDS011;4969;52.304;4.968;2023-07-20T07:07:04;2.13;;;0.80;;
9860;SDS011;4969;52.304;4.968;2023-07-20T07:09:30;1.33;;;0.82;;
9860;SDS011;4969;52.304;4.968;2023-07-20T07:11:57;1.13;;;0.70;;
9860;SDS011;4969;52.304;4.968;2023-07-20T07:14:24;1.58;;;1.00;;
9860;SDS011;4969;52.304;4.968;2023-07-20T07:16:52;3.17;;;0.77;;
9860;SDS011;4969;52.304;4.968;2023-07-20T07:19:18;0.77;;;0.65;;
9860;SDS011;4969;52.304;4.968;2023-07-20T07:21:45;1.42;;;0.63;;
9860;SDS011;4969;52.304;4.968;2023-07-20T07:24:12;1.02;;;0.50;;
9860;SDS011;4969;52.304;4.968;2023-07-20T07:26:38;0.70;;;0.68;;
9860;SDS011;4969;52.304;4.968;2023-07-20T07:29:05;1.17;;;0.88;;
9860;SDS011;4969;52.304;4.968;2023-07-20T07:31:33;4.60;;;0.90;;
9860;SDS011;4969;52.304;4.968;2023-07-20T07:34:02;2.42;;;0.70;;
9860;SDS011;4969;52.304;4.968;2023-07-20T07:36:29;0.70;;;0.70;;
9860;SDS011;4969;52.304;4.968;2023-07-20T07:38:56;0.68;;;0.68;;
9860;SDS011;4969;52.304;4.968;2023-07-20T07:41:23;0.93;;;0.90;;
9860;SDS011;4969;52.304;4.968;2023-07-20T07:43:49;0.70;;;0.70;;
9860;SDS011;4969;52.304;4.968;2023-07-20T07:46:16;0.75;;;0.73;;
9860;SDS011;4969;52.304;4.968;2023-07-20T07:48:43;1.85;;;1.00;;
9860;SDS011;4969;52.304;4.968;2023-07-20T07:51:10;1.98;;;0.80;;
9860;SDS011;4969;52.304;4.968;2023-07-20T07:53:38;1.40;;;0.68;;
9860;SDS011;4969;52.304;4.968;2023-07-20T07:56:06;0.65;;;0.45;;
9860;SDS011;4969;52.304;4.968;2023-07-20T07:58:33;1.48;;;0.80;;
9860;SDS011;4969;52.304;4.968;2023-07-20T08:01:00;1.65;;;0.70;;
9860;SDS011;4969;52.304;4.968;2023-07-20T08:03:27;1.05;;;0.88;;
9860;SDS011;4969;52.304;4.968;2023-07-20T08:05:53;1.67;;;0.90;;
9860;SDS011;4969;52.304;4.968;2023-07-20T08:08:22;0.75;;;0.60;;
9860;SDS011;4969;52.304;4.968;2023-07-20T08:10:49;1.45;;;0.80;;
9860;SDS011;4969;52.304;4.968;2023-07-20T08:13:19;1.00;;;0.90;;
9860;SDS011;4969;52.304;4.968;2023-07-20T08:15:46;2.05;;;0.80;;
9860;SDS011;4969;52.304;4.968;2023-07-20T08:18:16;0.80;;;0.80;;
9860;SDS011;4969;52.304;4.968;2023-07-20T08:20:43;0.82;;;0.80;;
9860;SDS011;4969;52.304;4.968;2023-07-20T08:23:10;0.77;;;0.70;;
9860;SDS011;4969;52.304;4.968;2023-07-20T08:25:38;1.25;;;1.00;;
9860;SDS011;4969;52.304;4.968;2023-07-20T08:28:08;1.33;;;0.90;;
9860;SDS011;4969;52.304;4.968;2023-07-20T08:30:44;0.90;;;0.90;;
9860;SDS011;4969;52.304;4.968;2023-07-20T08:33:13;1.58;;;0.88;;
9860;SDS011;4969;52.304;4.968;2023-07-20T08:35:40;1.42;;;0.98;;
9860;SDS011;4969;52.304;4.968;2023-07-20T08:38:07;2.05;;;0.90;;
9860;SDS011;4969;52.304;4.968;2023-07-20T08:40:34;1.98;;;0.90;;
9860;SDS011;4969;52.304;4.968;2023-07-20T08:43:07;0.80;;;0.80;;
9860;SDS011;4969;52.304;4.968;2023-07-20T08:45:34;1.50;;;1.20;;
9860;SDS011;4969;52.304;4.968;2023-07-20T08:48:05;1.00;;;0.90;;
9860;SDS011;4969;52.304;4.968;2023-07-20T08:50:32;3.28;;;0.90;;
9860;SDS011;4969;52.304;4.968;2023-07-20T08:53:00;1.98;;;0.73;;
9860;SDS011;4969;52.304;4.968;2023-07-20T08:55:28;1.25;;;1.10;;
9860;SDS011;4969;52.304;4.968;2023-07-20T08:57:57;2.15;;;0.90;;
9860;SDS011;4969;52.304;4.968;2023-07-20T09:00:24;1.23;;;0.98;;
9860;SDS011;4969;52.304;4.968;2023-07-20T09:02:52;2.50;;;1.10;;
9860;SDS011;4969;52.304;4.968;2023-07-20T09:05:20;1.35;;;0.88;;
9860;SDS011;4969;52.304;4.968;2023-07-20T09:07:49;1.02;;;1.00;;
9860;SDS011;4969;52.304;4.968;2023-07-20T09:10:15;1.35;;;0.90;;
9860;SDS011;4969;52.304;4.968;2023-07-20T09:12:42;2.88;;;1.05;;
9860;SDS011;4969;52.304;4.968;2023-07-20T09:15:11;1.90;;;0.88;;
9860;SDS011;4969;52.304;4.968;2023-07-20T09:17:38;0.80;;;0.80;;
9860;SDS011;4969;52.304;4.968;2023-07-20T09:20:05;1.27;;;1.00;;
9860;SDS011;4969;52.304;4.968;2023-07-20T09:22:36;1.30;;;1.10;;
9860;SDS011;4969;52.304;4.968;2023-07-20T09:25:05;1.23;;;0.75;;
9860;SDS011;4969;52.304;4.968;2023-07-20T09:27:35;1.55;;;0.70;;
9860;SDS011;4969;52.304;4.968;2023-07-20T09:30:03;0.50;;;0.50;;
9860;SDS011;4969;52.304;4.968;2023-07-20T09:32:35;1.20;;;0.68;;
9860;SDS011;4969;52.304;4.968;2023-07-20T09:35:06;1.95;;;0.80;;
9860;SDS011;4969;52.304;4.968;2023-07-20T09:37:33;1.10;;;0.70;;
9860;SDS011;4969;52.304;4.968;2023-07-20T09:40:00;0.52;;;0.50;;
9860;SDS011;4969;52.304;4.968;2023-07-20T09:42:27;0.60;;;0.60;;
9860;SDS011;4969;52.304;4.968;2023-07-20T09:44:54;0.80;;;0.80;;
9860;SDS011;4969;52.304;4.968;2023-07-20T09:47:22;0.77;;;0.75;;
9860;SDS011;4969;52.304;4.968;2023-07-20T09:49:50;0.85;;;0.75;;
9860;SDS011;4969;52.304;4.968;2023-07-20T09:52:24;1.50;;;0.90;;
9860;SDS011;4969;52.304;4.968;2023-07-20T09:54:51;1.65;;;0.90;;
9860;SDS011;4969;52.304;4.968;2023-07-20T09:57:20;0.80;;;0.80;;
9860;SDS011;4969;52.304;4.968;2023-07-20T09:59:47;0.82;;;0.70;;
9860;SDS011;4969;52.304;4.968;2023-07-20T10:02:16;2.05;;;0.73;;
9860;SDS011;4969;52.304;4.968;2023-07-20T10:04:46;2.95;;;1.30;;
9860;SDS011;4969;52.304;4.968;2023-07-20T10:07:16;1.55;;;1.38;;
9860;SDS011;4969;52.304;4.968;2023-07-20T10:09:46;1.95;;;0.90;;
9860;SDS011;4969;52.304;4.968;2023-07-20T10:12:14;1.20;;;1.10;;
9860;SDS011;4969;52.304;4.968;2023-07-20T10:14:42;1.42;;;0.90;;
9860;SDS011;4969;52.304;4.968;2023-07-20T10:17:14;2.25;;;0.82;;
9860;SDS011;4969;52.304;4.968;2023-07-20T10:19:42;1.08;;;0.98;;
9860;SDS011;4969;52.304;4.968;2023-07-20T10:22:11;1.20;;;1.10;;
9860;SDS011;4969;52.304;4.968;2023-07-20T10:24:44;1.10;;;1.00;;
9860;SDS011;4969;52.304;4.968;2023-07-20T10:27:12;4.03;;;1.05;;
9860;SDS011;4969;52.304;4.968;2023-07-20T10:29:39;1.02;;;1.00;;
9860;SDS011;4969;52.304;4.968;2023-07-20T10:32:07;0.75;;;0.75;;
9860;SDS011;4969;52.304;4.968;2023-07-20T10:34:35;0.70;;;0.70;;
9860;SDS011;4969;52.304;4.968;2023-07-20T10:37:02;1.40;;;0.70;;
9860;SDS011;4969;52.304;4.968;2023-07-20T10:39:32;2.38;;;0.82;;
9860;SDS011;4969;52.304;4.968;2023-07-20T10:42:01;3.00;;;0.95;;
9860;SDS011;4969;52.304;4.968;2023-07-20T10:44:29;3.30;;;1.02;;
9860;SDS011;4969;52.304;4.968;2023-07-20T10:46:59;1.33;;;0.90;;
9860;SDS011;4969;52.304;4.968;2023-07-20T10:49:26;1.02;;;0.90;;
9860;SDS011;4969;52.304;4.968;2023-07-20T10:51:57;0.98;;;0.85;;
9860;SDS011;4969;52.304;4.968;2023-07-20T10:54:34;1.05;;;0.90;;
9860;SDS011;4969;52.304;4.968;2023-07-20T10:57:23;0.90;;;0.80;;
9860;SDS011;4969;52.304;4.968;2023-07-20T11:00:08;1.35;;;1.00;;
9860;SDS011;4969;52.304;4.968;2023-07-20T11:02:41;0.73;;;0.70;;
9860;SDS011;4969;52.304;4.968;2023-07-20T11:08:03;1.17;;;0.90;;
9860;SDS011;4969;52.304;4.968;2023-07-20T11:10:30;1.63;;;0.70;;
9860;SDS011;4969;52.304;4.968;2023-07-20T11:16:01;1.48;;;0.60;;
9860;SDS011;4969;52.304;4.968;2023-07-20T11:18:29;0.95;;;0.90;;
9860;SDS011;4969;52.304;4.968;2023-07-20T11:20:59;1.45;;;0.90;;
9860;SDS011;4969;52.304;4.968;2023-07-20T11:23:25;0.70;;;0.70;;
9860;SDS011;4969;52.304;4.968;2023-07-20T11:25:52;1.67;;;0.90;;
9860;SDS011;4969;52.304;4.968;2023-07-20T11:28:19;1.42;;;0.57;;
9860;SDS011;4969;52.304;4.968;2023-07-20T11:30:49;2.25;;;1.02;;
9860;SDS011;4969;52.304;4.968;2023-07-20T11:33:18;1.63;;;1.00;;
9860;SDS011;4969;52.304;4.968;2023-07-20T11:35:44;2.05;;;1.00;;
9860;SDS011;4969;52.304;4.968;2023-07-20T11:38:12;1.10;;;1.00;;
9860;SDS011;4969;52.304;4.968;2023-07-20T11:40:42;0.70;;;0.70;;
9860;SDS011;4969;52.304;4.968;2023-07-20T11:43:09;3.70;;;0.85;;
9860;SDS011;4969;52.304;4.968;2023-07-20T11:45:37;1.10;;;0.70;;
9860;SDS011;4969;52.304;4.968;2023-07-20T11:48:05;1.50;;;0.57;;
9860;SDS011;4969;52.304;4.968;2023-07-20T11:50:32;0.80;;;0.80;;
9860;SDS011;4969;52.304;4.968;2023-07-20T11:53:04;1.00;;;0.90;;
9860;SDS011;4969;52.304;4.968;2023-07-20T11:55:31;0.95;;;0.73;;
9860;SDS011;4969;52.304;4.968;2023-07-20T11:58:02;0.70;;;0.70;;
9860;SDS011;4969;52.304;4.968;2023-07-20T12:00:29;1.00;;;0.70;;
9860;SDS011;4969;52.304;4.968;2023-07-20T12:02:56;0.85;;;0.73;;
9860;SDS011;4969;52.304;4.968;2023-07-20T12:05:24;0.65;;;0.60;;
9860;SDS011;4969;52.304;4.968;2023-07-20T12:07:51;1.15;;;0.60;;
9860;SDS011;4969;52.304;4.968;2023-07-20T12:10:23;0.52;;;0.52;;
9860;SDS011;4969;52.304;4.968;2023-07-20T12:12:51;1.10;;;0.70;;
9860;SDS011;4969;52.304;4.968;2023-07-20T12:15:19;0.82;;;0.80;;
9860;SDS011;4969;52.304;4.968;2023-07-20T12:17:49;0.63;;;0.63;;
9860;SDS011;4969;52.304;4.968;2023-07-20T12:20:26;1.10;;;0.60;;
9860;SDS011;4969;52.304;4.968;2023-07-20T12:22:55;0.98;;;0.73;;
9860;SDS011;4969;52.304;4.968;2023-07-20T12:25:23;1.23;;;0.63;;
9860;SDS011;4969;52.304;4.968;2023-07-20T12:27:50;0.70;;;0.70;;
9860;SDS011;4969;52.304;4.968;2023-07-20T12:30:16;0.70;;;0.70;;
9860;SDS011;4969;52.304;4.968;2023-07-20T12:32:43;1.15;;;0.70;;
9860;SDS011;4969;52.304;4.968;2023-07-20T12:35:09;1.52;;;0.60;;
9860;SDS011;4969;52.304;4.968;2023-07-20T12:37:37;0.70;;;0.70;;
9860;SDS011;4969;52.304;4.968;2023-07-20T12:40:05;1.23;;;0.95;;
9860;SDS011;4969;52.304;4.968;2023-07-20T12:42:35;1.55;;;0.70;;
9860;SDS011;4969;52.304;4.968;2023-07-20T12:45:02;1.85;;;0.98;;
9860;SDS011;4969;52.304;4.968;2023-07-20T12:47:29;0.63;;;0.60;;
9860;SDS011;4969;52.304;4.968;2023-07-20T12:49:56;1.10;;;0.80;;
9860;SDS011;4969;52.304;4.968;2023-07-20T12:52:23;1.85;;;0.70;;
9860;SDS011;4969;52.304;4.968;2023-07-20T12:54:50;0.50;;;0.50;;
9860;SDS011;4969;52.304;4.968;2023-07-20T12:57:17;1.98;;;0.68;;
9860;SDS011;4969;52.304;4.968;2023-07-20T12:59:44;2.80;;;0.80;;
9860;SDS011;4969;52.304;4.968;2023-07-20T13:02:10;2.17;;;0.57;;
9860;SDS011;4969;52.304;4.968;2023-07-20T13:04:37;3.13;;;0.93;;
9860;SDS011;4969;52.304;4.968;2023-07-20T13:07:04;1.48;;;0.75;;
9860;SDS011;4969;52.304;4.968;2023-07-20T13:09:30;0.82;;;0.80;;
9860;SDS011;4969;52.304;4.968;2023-07-20T13:11:58;0.68;;;0.65;;
9860;SDS011;4969;52.304;4.968;2023-07-20T13:14:26;0.95;;;0.70;;
9860;SDS011;4969;52.304;4.968;2023-07-20T13:16:55;0.73;;;0.73;;
9860;SDS011;4969;52.304;4.968;2023-07-20T13:19:21;0.70;;;0.60;;
9860;SDS011;4969;52.304;4.968;2023-07-20T13:21:48;0.85;;;0.85;;
9860;SDS011;4969;52.304;4.968;2023-07-20T13:24:14;0.75;;;0.65;;
9860;SDS011;4969;52.304;4.968;2023-07-20T13:26:42;0.85;;;0.65;;
9860;SDS011;4969;52.304;4.968;2023-07-20T13:29:10;1.70;;;0.77;;
9860;SDS011;4969;52.304;4.968;2023-07-20T13:31:36;1.45;;;0.70;;
9860;SDS011;4969;52.304;4.968;2023-07-20T13:34:03;3.00;;;0.70;;
9860;SDS011;4969;52.304;4.968;2023-07-20T13:36:31;1.90;;;0.60;;
9860;SDS011;4969;52.304;4.968;2023-07-20T13:38:57;1.23;;;0.60;;
9860;SDS011;4969;52.304;4.968;2023-07-20T13:41:24;1.52;;;0.55;;
9860;SDS011;4969;52.304;4.968;2023-07-20T13:43:51;0.75;;;0.73;;
9860;SDS011;4969;52.304;4.968;2023-07-20T13:46:19;0.85;;;0.60;;
9860;SDS011;4969;52.304;4.968;2023-07-20T13:48:45;0.60;;;0.60;;
9860;SDS011;4969;52.304;4.968;2023-07-20T13:51:12;1.00;;;0.90;;
9860;SDS011;4969;52.304;4.968;2023-07-20T13:53:38;0.90;;;0.90;;
9860;SDS011;4969;52.304;4.968;2023-07-20T13:56:05;1.55;;;1.33;;
9860;SDS011;4969;52.304;4.968;2023-07-20T13:58:32;1.48;;;1.38;;
9860;SDS011;4969;52.304;4.968;2023-07-20T14:00:59;1.70;;;1.45;;
9860;SDS011;4969;52.304;4.968;2023-07-20T14:03:27;1.00;;;0.95;;
9860;SDS011;4969;52.304;4.968;2023-07-20T14:05:53;1.10;;;1.00;;
9860;SDS011;4969;52.304;4.968;2023-07-20T14:08:20;1.27;;;1.17;;
9860;SDS011;4969;52.304;4.968;2023-07-20T14:10:47;1.63;;;1.23;;
9860;SDS011;4969;52.304;4.968;2023-07-20T14:13:13;1.27;;;1.17;;
9860;SDS011;4969;52.304;4.968;2023-07-20T14:15:40;1.33;;;1.10;;
9860;SDS011;4969;52.304;4.968;2023-07-20T14:18:07;3.53;;;1.00;;
9860;SDS011;4969;52.304;4.968;2023-07-20T14:20:35;1.77;;;1.05;;
9860;SDS011;4969;52.304;4.968;2023-07-20T14:23:02;1.80;;;1.33;;
9860;SDS011;4969;52.304;4.968;2023-07-20T14:25:28;1.10;;;1.10;;
9860;SDS011;4969;52.304;4.968;2023-07-20T14:27:55;1.30;;;1.02;;
9860;SDS011;4969;52.304;4.968;2023-07-20T14:30:21;1.10;;;0.93;;
9860;SDS011;4969;52.304;4.968;2023-07-20T14:32:48;4.00;;;1.08;;
9860;SDS011;4969;52.304;4.968;2023-07-20T14:35:15;1.35;;;0.77;;
9860;SDS011;4969;52.304;4.968;2023-07-20T14:37:43;1.02;;;0.90;;
9860;SDS011;4969;52.304;4.968;2023-07-20T14:40:12;1.13;;;0.93;;
9860;SDS011;4969;52.304;4.968;2023-07-20T14:42:39;0.60;;;0.60;;
9860;SDS011;4969;52.304;4.968;2023-07-20T14:45:06;0.50;;;0.50;;
9860;SDS011;4969;52.304;4.968;2023-07-20T14:47:33;0.70;;;0.68;;
9860;SDS011;4969;52.304;4.968;2023-07-20T14:50:00;0.40;;;0.40;;
9860;SDS011;4969;52.304;4.968;2023-07-20T14:52:27;0.70;;;0.70;;
9860;SDS011;4969;52.304;4.968;2023-07-20T14:54:55;5.53;;;1.55;;
9860;SDS011;4969;52.304;4.968;2023-07-20T14:57:22;1.58;;;0.77;;
9860;SDS011;4969;52.304;4.968;2023-07-20T14:59:49;0.98;;;0.60;;
9860;SDS011;4969;52.304;4.968;2023-07-20T15:02:16;1.02;;;0.73;;
9860;SDS011;4969;52.304;4.968;2023-07-20T15:04:46;4.47;;;1.20;;
9860;SDS011;4969;52.304;4.968;2023-07-20T15:07:14;2.15;;;1.20;;
9860;SDS011;4969;52.304;4.968;2023-07-20T15:09:40;1.15;;;1.00;;
9860;SDS011;4969;52.304;4.968;2023-07-20T15:12:09;2.45;;;1.13;;
9860;SDS011;4969;52.304;4.968;2023-07-20T15:14:35;2.53;;;1.00;;
9860;SDS011;4969;52.304;4.968;2023-07-20T15:17:06;1.75;;;1.30;;
9860;SDS011;4969;52.304;4.968;2023-07-20T15:19:32;2.05;;;1.13;;
9860;SDS011;4969;52.304;4.968;2023-07-20T15:22:01;1.35;;;0.90;;
9860;SDS011;4969;52.304;4.968;2023-07-20T15:24:28;2.45;;;1.20;;
9860;SDS011;4969;52.304;4.968;2023-07-20T15:26:54;2.38;;;1.02;;
9860;SDS011;4969;52.304;4.968;2023-07-20T15:29:23;2.25;;;1.40;;
9860;SDS011;4969;52.304;4.968;2023-07-20T15:31:50;1.30;;;1.00;;
9860;SDS011;4969;52.304;4.968;2023-07-20T15:34:17;1.23;;;0.88;;
9860;SDS011;4969;52.304;4.968;2023-07-20T15:36:43;1.55;;;1.00;;
9860;SDS011;4969;52.304;4.968;2023-07-20T15:39:10;1.30;;;1.20;;
9860;SDS011;4969;52.304;4.968;2023-07-20T15:41:36;1.65;;;1.20;;
9860;SDS011;4969;52.304;4.968;2023-07-20T15:44:03;1.55;;;1.10;;
9860;SDS011;4969;52.304;4.968;2023-07-20T15:46:47;2.30;;;0.88;;
9860;SDS011;4969;52.304;4.968;2023-07-20T15:49:14;3.00;;;1.20;;
9860;SDS011;4969;52.304;4.968;2023-07-20T15:51:41;2.60;;;1.17;;
9860;SDS011;4969;52.304;4.968;2023-07-20T15:54:08;3.17;;;1.05;;
9860;SDS011;4969;52.304;4.968;2023-07-20T15:56:35;3.20;;;1.35;;
9860;SDS011;4969;52.304;4.968;2023-07-20T15:59:03;2.22;;;1.10;;
9860;SDS011;4969;52.304;4.968;2023-07-20T16:01:29;1.95;;;1.10;;
9860;SDS011;4969;52.304;4.968;2023-07-20T16:03:59;1.20;;;1.10;;
9860;SDS011;4969;52.304;4.968;2023-07-20T16:06:26;1.10;;;1.10;;
9860;SDS011;4969;52.304;4.968;2023-07-20T16:08:53;1.70;;;0.90;;
9860;SDS011;4969;52.304;4.968;2023-07-20T16:11:21;2.25;;;1.10;;
9860;SDS011;4969;52.304;4.968;2023-07-20T16:13:48;2.45;;;1.02;;
9860;SDS011;4969;52.304;4.968;2023-07-20T16:16:15;1.73;;;1.02;;
9860;SDS011;4969;52.304;4.968;2023-07-20T16:18:41;0.80;;;0.80;;
9860;SDS011;4969;52.304;4.968;2023-07-20T16:21:10;1.20;;;1.10;;
9860;SDS011;4969;52.304;4.968;2023-07-20T16:23:36;2.80;;;1.20;;
9860;SDS011;4969;52.304;4.968;2023-07-20T16:26:03;1.83;;;1.20;;
9860;SDS011;4969;52.304;4.968;2023-07-20T16:28:29;1.33;;;1.23;;
9860;SDS011;4969;52.304;4.968;2023-07-20T16:30:56;2.03;;;1.20;;
9860;SDS011;4969;52.304;4.968;2023-07-20T16:33:23;4.22;;;1.00;;
9860;SDS011;4969;52.304;4.968;2023-07-20T16:35:49;1.20;;;0.98;;
9860;SDS011;4969;52.304;4.968;2023-07-20T16:38:17;2.00;;;0.90;;
9860;SDS011;4969;52.304;4.968;2023-07-20T16:40:44;0.98;;;0.88;;
9860;SDS011;4969;52.304;4.968;2023-07-20T16:43:10;1.33;;;0.93;;
9860;SDS011;4969;52.304;4.968;2023-07-20T16:45:37;0.80;;;0.80;;
9860;SDS011;4969;52.304;4.968;2023-07-20T16:48:04;3.05;;;1.15;;
9860;SDS011;4969;52.304;4.968;2023-07-20T16:50:31;1.05;;;0.95;;